Time;durP1;ratioP1;P1;durP2;ratioP2;P2;SDS_P1;SDS_P2;PMS_P1;PMS_P2;Temp;Humidity;BMP_temperature;BMP_pressure;BME280_temperature;BME280_humidity;BME280_pressure;Samples;Min_cycle;Max_cycle;Signal;HPM_P1;HPM_P2
2021/09/01 00:00:23;;;;;;;3.28;3.17;;;18.80;59.70;;;;;;5055755;28;20029;-81
2021/09/01 00:02:49;;;;;;;3.88;3.67;;;18.80;59.70;;;;;;5053627;28;20385;-85
2021/09/01 00:05:15;;;;;;;3.40;3.20;;;18.70;59.70;;;;;;5054956;28;20032;-85
2021/09/01 00:07:42;;;;;;;3.65;3.42;;;18.70;59.80;;;;;;5054465;28;20477;-86
2021/09/01 00:10:09;;;;;;;3.15;3.03;;;18.70;59.90;;;;;;5051048;28;20036;-84
2021/09/01 00:12:35;;;;;;;3.47;3.28;;;18.70;60.00;;;;;;5053148;28;20040;-84
2021/09/01 00:15:01;;;;;;;3.67;3.47;;;18.60;60.00;;;;;;5088747;28;20025;-84
2021/09/01 00:17:27;;;;;;;3.28;3.08;;;18.60;60.10;;;;;;5054426;28;20040;-84
2021/09/01 00:19:53;;;;;;;3.85;3.65;;;18.50;60.10;;;;;;5056571;28;20390;-84
2021/09/01 00:22:19;;;;;;;3.15;3.05;;;18.50;60.10;;;;;;5056426;28;20029;-85
2021/09/01 00:24:45;;;;;;;3.47;3.30;;;18.50;60.30;;;;;;5055164;28;20478;-84
2021/09/01 00:27:13;;;;;;;3.80;3.47;;;18.40;60.30;;;;;;5059771;28;20029;-84
2021/09/01 00:29:39;;;;;;;5.72;3.63;;;18.40;60.40;;;;;;5058782;28;20091;-85
2021/09/01 00:32:05;;;;;;;4.30;3.65;;;18.40;60.40;;;;;;5057043;28;20044;-84
2021/09/01 00:34:32;;;;;;;3.15;3.05;;;18.40;60.50;;;;;;5058497;28;20036;-82
2021/09/01 00:36:58;;;;;;;3.70;3.40;;;18.30;60.40;;;;;;5052843;28;20029;-85
2021/09/01 00:39:24;;;;;;;3.35;3.15;;;18.40;60.50;;;;;;5058636;28;20354;-84
2021/09/01 00:41:50;;;;;;;3.30;3.13;;;18.40;60.50;;;;;;5057377;28;20036;-85
2021/09/01 00:44:18;;;;;;;3.47;3.30;;;18.30;60.50;;;;;;5057298;28;20488;-85
2021/09/01 00:46:45;;;;;;;3.50;3.30;;;18.30;60.50;;;;;;5057809;28;20032;-85
2021/09/01 00:49:12;;;;;;;3.80;3.45;;;18.30;60.60;;;;;;5038601;28;20025;-82
2021/09/01 00:51:38;;;;;;;3.63;3.25;;;18.20;60.80;;;;;;5038027;28;20517;-84
2021/09/01 00:54:04;;;;;;;7.88;3.65;;;18.20;60.90;;;;;;5058368;28;20033;-85
2021/09/01 00:56:30;;;;;;;3.17;3.08;;;18.10;60.90;;;;;;5057123;28;20036;-85
2021/09/01 00:58:56;;;;;;;3.50;3.30;;;18.10;60.90;;;;;;5040441;28;20029;-84
2021/09/01 01:01:22;;;;;;;3.53;3.33;;;18.00;61.00;;;;;;5055932;28;20040;-85
2021/09/01 01:03:50;;;;;;;3.50;3.28;;;18.10;61.10;;;;;;5053183;28;20047;-85
2021/09/01 01:06:27;;;;;;;3.58;3.38;;;18.00;61.20;;;;;;5058531;28;20036;-85
2021/09/01 01:08:54;;;;;;;3.30;3.10;;;18.00;61.40;;;;;;5057176;28;20398;-84
2021/09/01 01:11:20;;;;;;;3.88;3.40;;;18.00;61.40;;;;;;5058071;28;20051;-85
2021/09/01 01:13:46;;;;;;;3.50;3.30;;;17.90;61.30;;;;;;5057944;28;20036;-85
2021/09/01 01:16:13;;;;;;;3.15;3.05;;;17.90;61.40;;;;;;5054061;28;20110;-84
2021/09/01 01:18:40;;;;;;;3.65;3.45;;;17.90;61.40;;;;;;5054816;28;20049;-84
2021/09/01 01:21:07;;;;;;;3.35;3.15;;;17.90;61.50;;;;;;5057631;28;20048;-85
2021/09/01 01:23:33;;;;;;;3.65;3.45;;;17.90;61.50;;;;;;5056502;28;20482;-86
2021/09/01 01:25:59;;;;;;;3.72;3.53;;;17.80;61.50;;;;;;5057687;28;20021;-85
2021/09/01 01:28:25;;;;;;;3.75;3.42;;;17.80;61.60;;;;;;5057656;28;20481;-84
2021/09/01 01:30:51;;;;;;;3.30;3.10;;;17.80;61.70;;;;;;5052473;28;20052;-85
2021/09/01 01:33:17;;;;;;;3.65;3.45;;;17.80;61.70;;;;;;5059473;28;20029;-85
2021/09/01 01:35:44;;;;;;;3.40;3.20;;;17.80;61.70;;;;;;5055731;28;20048;-84
2021/09/01 01:38:12;;;;;;;3.42;3.22;;;17.80;61.80;;;;;;5056271;28;20478;-85
2021/09/01 01:40:40;;;;;;;4.55;4.25;;;17.70;61.90;;;;;;5056247;28;20052;-84
2021/09/01 01:43:06;;;;;;;7.25;3.42;;;17.70;61.90;;;;;;5054861;28;20037;-85
2021/09/01 01:45:39;;;;;;;3.10;3.00;;;17.70;61.80;;;;;;5054979;28;20044;-85
2021/09/01 01:48:05;;;;;;;3.50;3.20;;;17.80;61.90;;;;;;5057289;28;20024;-85
2021/09/01 01:50:32;;;;;;;3.60;3.40;;;17.80;62.60;;;;;;5055770;28;20033;-83
2021/09/01 01:52:58;;;;;;;3.60;3.40;;;17.70;61.80;;;;;;5056020;28;20040;-83
2021/09/01 01:55:24;;;;;;;3.10;2.90;;;17.80;61.90;;;;;;5054300;28;20032;-85
2021/09/01 01:57:50;;;;;;;3.60;3.40;;;17.80;61.90;;;;;;5052233;28;20033;-87
2021/09/01 02:00:16;;;;;;;2.90;2.80;;;17.80;61.90;;;;;;5054967;28;20030;-84
2021/09/01 02:02:42;;;;;;;3.28;3.17;;;17.70;61.80;;;;;;5044754;28;20485;-82
2021/09/01 02:05:09;;;;;;;5.53;3.00;;;17.70;62.00;;;;;;5046762;28;20029;-85
2021/09/01 02:07:35;;;;;;;3.60;3.40;;;17.60;62.10;;;;;;5048096;28;20044;-84
2021/09/01 02:10:01;;;;;;;4.05;3.83;;;17.60;62.20;;;;;;5047095;28;20390;-83
2021/09/01 02:12:31;;;;;;;3.63;3.42;;;17.50;62.20;;;;;;5038817;28;20028;-85
2021/09/01 02:15:00;;;;;;;3.03;2.90;;;17.50;62.20;;;;;;5047392;28;20493;-85
2021/09/01 02:17:26;;;;;;;3.75;3.50;;;17.50;62.20;;;;;;5039046;28;20030;-85
2021/09/01 02:19:53;;;;;;;3.90;3.60;;;17.50;62.40;;;;;;5036105;28;20029;-85
2021/09/01 02:22:19;;;;;;;3.78;3.47;;;17.50;62.40;;;;;;5041865;28;20036;-85
2021/09/01 02:24:45;;;;;;;3.30;3.10;;;17.50;62.40;;;;;;5032908;28;20483;-84
2021/09/01 02:27:11;;;;;;;3.35;3.15;;;17.50;62.40;;;;;;5069338;28;20029;-85
2021/09/01 02:29:37;;;;;;;3.63;3.42;;;17.50;62.40;;;;;;5037360;28;20034;-83
2021/09/01 02:32:04;;;;;;;3.55;3.30;;;17.40;62.40;;;;;;5035651;28;20045;-85
2021/09/01 02:34:30;;;;;;;3.58;3.38;;;17.40;62.50;;;;;;5034414;28;20398;-85
2021/09/01 02:36:56;;;;;;;3.42;3.22;;;17.40;62.60;;;;;;5049896;28;20385;-84
2021/09/01 02:39:22;;;;;;;2.97;2.88;;;17.30;62.60;;;;;;5056922;28;20041;-85
2021/09/01 02:41:48;;;;;;;3.83;3.63;;;17.30;62.70;;;;;;5055565;28;20033;-80
2021/09/01 02:44:15;;;;;;;4.07;3.45;;;17.30;62.70;;;;;;5055059;28;20363;-84
2021/09/01 02:46:41;;;;;;;3.42;3.22;;;17.30;62.80;;;;;;5054575;28;20039;-84
2021/09/01 02:49:07;;;;;;;3.00;2.90;;;17.20;62.80;;;;;;5053258;28;20028;-85
2021/09/01 02:51:33;;;;;;;3.35;3.15;;;17.20;62.90;;;;;;5053790;28;20043;-84
2021/09/01 02:53:59;;;;;;;3.10;3.00;;;17.20;62.90;;;;;;5055899;28;20394;-85
2021/09/01 02:56:25;;;;;;;5.97;3.25;;;17.20;63.00;;;;;;5055961;28;20032;-83
2021/09/01 02:58:51;;;;;;;3.38;3.17;;;17.10;63.00;;;;;;5055995;28;20028;-85
2021/09/01 03:01:17;;;;;;;3.15;3.05;;;17.10;63.10;;;;;;5054152;28;20029;-84
2021/09/01 03:03:43;;;;;;;3.45;3.35;;;17.10;63.20;;;;;;5052242;28;20076;-84
2021/09/01 03:06:09;;;;;;;3.40;3.20;;;17.00;63.30;;;;;;5057691;28;20029;-85
2021/09/01 03:08:35;;;;;;;3.30;3.10;;;17.00;63.40;;;;;;5055608;28;20482;-84
2021/09/01 03:11:02;;;;;;;2.97;2.78;;;17.00;63.50;;;;;;5055635;28;20033;-86
2021/09/01 03:13:28;;;;;;;3.67;3.38;;;16.90;63.50;;;;;;5049755;28;20025;-86
2021/09/01 03:15:54;;;;;;;3.00;2.80;;;17.00;63.50;;;;;;5050852;28;20406;-85
2021/09/01 03:18:20;;;;;;;2.80;2.70;;;16.90;63.40;;;;;;5055927;28;20032;-84
2021/09/01 03:20:46;;;;;;;2.90;2.70;;;17.00;63.40;;;;;;5055372;28;20516;-85
2021/09/01 03:23:12;;;;;;;5.50;2.92;;;17.00;63.30;;;;;;5054283;28;20032;-83
2021/09/01 03:25:38;;;;;;;3.13;2.92;;;16.90;63.30;;;;;;5055605;28;20054;-85
2021/09/01 03:28:04;;;;;;;3.00;2.90;;;16.90;63.40;;;;;;5051284;28;20032;-85
2021/09/01 03:30:30;;;;;;;2.80;2.70;;;16.90;63.40;;;;;;5054618;28;20039;-85
2021/09/01 03:32:57;;;;;;;2.95;2.80;;;16.90;63.50;;;;;;5054718;28;20363;-84
2021/09/01 03:35:23;;;;;;;2.92;2.72;;;16.90;63.60;;;;;;5054060;28;20392;-83
2021/09/01 03:37:49;;;;;;;2.90;2.78;;;16.90;63.60;;;;;;5055324;28;20033;-83
2021/09/01 03:40:15;;;;;;;2.70;2.60;;;16.80;63.60;;;;;;5036017;28;20040;-85
2021/09/01 03:42:42;;;;;;;3.08;2.88;;;16.80;63.70;;;;;;5052362;28;20029;-84
2021/09/01 03:45:08;;;;;;;2.90;2.70;;;16.80;63.90;;;;;;5055083;28;20021;-84
2021/09/01 03:47:34;;;;;;;3.95;3.60;;;16.80;63.90;;;;;;5053885;28;20032;-85
2021/09/01 03:50:01;;;;;;;2.60;2.50;;;16.80;64.00;;;;;;5055079;28;20032;-85
2021/09/01 03:52:27;;;;;;;2.60;2.50;;;16.70;64.10;;;;;;5051868;28;20047;-85
2021/09/01 03:54:54;;;;;;;3.30;3.10;;;16.70;64.20;;;;;;5049101;28;20509;-84
2021/09/01 03:57:20;;;;;;;5.22;2.97;;;16.60;64.40;;;;;;5056907;28;20033;-82
2021/09/01 03:59:46;;;;;;;2.60;2.50;;;16.60;64.50;;;;;;5054651;28;20355;-84
2021/09/01 04:02:12;;;;;;;3.10;2.90;;;16.60;64.70;;;;;;5054472;28;20032;-85
2021/09/01 04:04:38;;;;;;;2.83;2.72;;;16.50;64.90;;;;;;5054004;28;20044;-85
2021/09/01 04:07:04;;;;;;;3.35;3.15;;;16.50;65.00;;;;;;5051757;28;20029;-85
2021/09/01 04:09:30;;;;;;;2.92;2.83;;;16.50;65.10;;;;;;5053751;28;20032;-84
2021/09/01 04:11:56;;;;;;;2.67;2.58;;;16.50;65.10;;;;;;5055404;28;20048;-84
2021/09/01 04:14:23;;;;;;;2.90;2.80;;;16.50;65.20;;;;;;5053258;28;20029;-85
2021/09/01 04:16:49;;;;;;;6.13;3.10;;;16.40;65.30;;;;;;5054372;28;20060;-84
2021/09/01 04:19:15;;;;;;;2.78;2.67;;;16.40;65.40;;;;;;5051943;28;20056;-84
2021/09/01 04:21:41;;;;;;;2.53;2.42;;;16.40;65.40;;;;;;5051185;28;20449;-84
2021/09/01 04:24:07;;;;;;;3.67;2.83;;;16.40;65.60;;;;;;5056834;28;20033;-85
2021/09/01 04:26:33;;;;;;;3.20;3.00;;;16.40;65.70;;;;;;5053594;28;20037;-85
2021/09/01 04:28:59;;;;;;;4.57;2.90;;;16.30;66.00;;;;;;5054417;28;20401;-85
2021/09/01 04:31:26;;;;;;;3.13;2.97;;;16.30;66.20;;;;;;5053751;28;20032;-84
2021/09/01 04:33:52;;;;;;;2.63;2.53;;;16.20;66.40;;;;;;5050184;28;20466;-84
2021/09/01 04:36:18;;;;;;;3.10;2.83;;;16.20;66.40;;;;;;5055393;28;20025;-85
2021/09/01 04:38:44;;;;;;;4.50;3.35;;;16.20;66.60;;;;;;5053427;28;20029;-85
2021/09/01 04:41:10;;;;;;;2.83;2.63;;;16.20;66.70;;;;;;5053328;28;20044;-85
2021/09/01 04:43:37;;;;;;;3.45;3.13;;;16.20;66.80;;;;;;5054096;28;20024;-85
2021/09/01 04:46:03;;;;;;;3.10;2.85;;;16.20;66.90;;;;;;5049483;28;20055;-84
2021/09/01 04:48:29;;;;;;;2.40;2.30;;;16.20;67.00;;;;;;5054943;28;20033;-83
2021/09/01 04:50:56;;;;;;;3.63;3.42;;;16.20;67.10;;;;;;5053934;28;20385;-84
2021/09/01 04:53:22;;;;;;;4.53;2.90;;;16.20;67.10;;;;;;5054479;28;20037;-85
2021/09/01 04:55:48;;;;;;;2.80;2.70;;;16.10;67.00;;;;;;5054597;28;20427;-84
2021/09/01 04:58:14;;;;;;;3.08;2.88;;;16.20;67.30;;;;;;5052312;28;20040;-84
2021/09/01 05:00:40;;;;;;;3.25;3.05;;;16.10;67.30;;;;;;5033323;28;20036;-85
2021/09/01 05:03:06;;;;;;;3.75;3.35;;;16.10;67.30;;;;;;5055317;28;20462;-85
2021/09/01 05:05:33;;;;;;;3.33;3.17;;;16.10;67.30;;;;;;5056495;28;20136;-82
2021/09/01 05:07:59;;;;;;;3.78;3.17;;;16.10;67.50;;;;;;5058142;28;20398;-85
2021/09/01 05:10:25;;;;;;;3.78;3.58;;;16.10;67.80;;;;;;5054806;28;20028;-84
2021/09/01 05:12:51;;;;;;;3.20;3.00;;;16.00;68.10;;;;;;5053349;28;20036;-85
2021/09/01 05:15:19;;;;;;;3.47;3.25;;;16.00;68.10;;;;;;5059357;28;20025;-84
2021/09/01 05:17:45;;;;;;;3.63;3.42;;;16.00;68.20;;;;;;5040276;28;20103;-85
2021/09/01 05:20:12;;;;;;;2.90;2.70;;;16.00;68.20;;;;;;5057773;28;20032;-84
2021/09/01 05:22:38;;;;;;;2.97;2.88;;;16.00;68.30;;;;;;5056658;28;20024;-84
2021/09/01 05:25:06;;;;;;;3.75;3.45;;;16.00;68.70;;;;;;5037112;28;20025;-84
2021/09/01 05:27:34;;;;;;;3.22;3.03;;;16.00;68.70;;;;;;5055953;28;20025;-81
2021/09/01 05:30:00;;;;;;;3.40;3.10;;;16.00;68.70;;;;;;5058812;28;20045;-84
2021/09/01 05:32:28;;;;;;;2.30;2.20;;;16.00;68.80;;;;;;5057196;28;20390;-84
2021/09/01 05:35:00;;;;;;;3.03;2.83;;;16.00;68.80;;;;;;5057672;28;20485;-84
2021/09/01 05:37:27;;;;;;;3.92;3.00;;;16.00;68.90;;;;;;5057927;28;20886;-84
2021/09/01 05:39:55;;;;;;;5.68;2.50;;;16.00;69.00;;;;;;5034803;28;20040;-84
2021/09/01 05:42:23;;;;;;;13.82;3.20;;;16.00;69.00;;;;;;5066191;28;20487;-84
2021/09/01 05:44:49;;;;;;;2.75;2.65;;;16.00;69.00;;;;;;5056193;28;20036;-85
2021/09/01 05:47:16;;;;;;;3.03;2.83;;;16.00;69.20;;;;;;5055791;28;20045;-85
2021/09/01 05:49:44;;;;;;;3.67;2.83;;;16.00;69.20;;;;;;5038004;28;20063;-85
2021/09/01 05:52:10;;;;;;;3.55;3.25;;;15.90;69.40;;;;;;5054840;28;20040;-85
2021/09/01 05:54:39;;;;;;;3.20;3.10;;;15.90;69.60;;;;;;5037903;28;20025;-84
2021/09/01 05:57:11;;;;;;;2.83;2.70;;;15.90;69.80;;;;;;5056678;28;20028;-85
2021/09/01 06:00:23;;;;;;;3.17;2.90;;;15.90;70.00;;;;;;5057010;28;20033;-85
2021/09/01 06:02:53;;;;;;;5.32;3.58;;;15.90;70.10;;;;;;5054545;28;20437;-83
2021/09/01 06:05:20;;;;;;;2.70;2.58;;;16.00;70.10;;;;;;5055826;28;20037;-84
2021/09/01 06:07:52;;;;;;;3.30;3.17;;;16.00;70.00;;;;;;5055680;28;20040;-84
2021/09/01 06:10:22;;;;;;;3.13;2.90;;;16.10;69.90;;;;;;5054133;28;20482;-84
2021/09/01 06:12:51;;;;;;;3.45;3.25;;;16.20;69.60;;;;;;5051798;28;20393;-84
2021/09/01 06:15:17;;;;;;;3.53;3.22;;;16.40;69.40;;;;;;5057050;28;20052;-84
2021/09/01 06:17:43;;;;;;;3.47;3.28;;;16.50;69.50;;;;;;5054550;28;20044;-83
2021/09/01 06:20:10;;;;;;;8.57;3.95;;;16.50;69.50;;;;;;5056938;28;20401;-85
2021/09/01 06:22:36;;;;;;;3.78;3.58;;;16.60;69.50;;;;;;5056608;28;20037;-84
2021/09/01 06:25:02;;;;;;;3.28;3.10;;;16.70;69.40;;;;;;5035117;28;20025;-84
2021/09/01 06:27:29;;;;;;;4.93;3.42;;;16.80;69.30;;;;;;5055644;28;20036;-83
2021/09/01 06:29:55;;;;;;;3.40;3.20;;;16.90;69.10;;;;;;5057227;28;20052;-84
2021/09/01 06:32:21;;;;;;;4.13;3.92;;;17.00;68.90;;;;;;5055973;28;20052;-84
2021/09/01 06:34:47;;;;;;;4.97;4.68;;;17.00;68.80;;;;;;5056282;28;20056;-85
2021/09/01 06:37:13;;;;;;;3.97;3.78;;;17.10;68.80;;;;;;5054463;28;20478;-84
2021/09/01 06:39:41;;;;;;;4.28;4.03;;;17.20;68.70;;;;;;5036053;28;20023;-84
2021/09/01 06:42:07;;;;;;;5.22;4.75;;;17.30;68.60;;;;;;5055233;28;20017;-85
2021/09/01 06:44:34;;;;;;;5.35;5.05;;;17.40;68.40;;;;;;5038565;28;20417;-85
2021/09/01 06:47:00;;;;;;;4.25;4.05;;;17.50;68.40;;;;;;5055736;28;20445;-84
2021/09/01 06:49:26;;;;;;;4.65;4.45;;;17.50;68.20;;;;;;5055039;28;20031;-84
2021/09/01 06:51:53;;;;;;;4.50;4.30;;;17.60;68.30;;;;;;5066687;28;20052;-85
2021/09/01 06:54:19;;;;;;;5.38;5.07;;;17.80;68.10;;;;;;5040131;28;20514;-84
2021/09/01 06:56:45;;;;;;;3.75;3.45;;;17.80;68.00;;;;;;5055980;28;20036;-85
2021/09/01 06:59:11;;;;;;;5.38;5.00;;;17.90;68.00;;;;;;5054864;28;20024;-86
2021/09/01 07:01:37;;;;;;;5.03;4.72;;;17.90;67.80;;;;;;5037612;28;20028;-84
2021/09/01 07:04:03;;;;;;;5.25;4.95;;;18.10;67.80;;;;;;5052531;28;20029;-86
2021/09/01 07:06:29;;;;;;;4.28;4.07;;;18.10;67.70;;;;;;5055887;28;20029;-84
2021/09/01 07:08:55;;;;;;;5.00;4.63;;;18.20;67.70;;;;;;5055045;28;20386;-85
2021/09/01 07:11:21;;;;;;;4.25;4.00;;;18.20;67.70;;;;;;5037847;28;20028;-85
2021/09/01 07:13:48;;;;;;;3.40;3.30;;;18.30;67.70;;;;;;5055673;28;20043;-85
2021/09/01 07:16:14;;;;;;;3.90;3.70;;;18.40;67.60;;;;;;5052115;28;20029;-85
2021/09/01 07:18:40;;;;;;;4.22;4.03;;;18.40;67.40;;;;;;5051658;28;20037;-82
2021/09/01 07:21:06;;;;;;;3.53;3.33;;;18.50;67.40;;;;;;5057514;28;20025;-84
2021/09/01 07:23:33;;;;;;;3.85;3.60;;;18.50;67.30;;;;;;5053964;28;20029;-83
2021/09/01 07:25:59;;;;;;;3.67;3.50;;;18.60;67.30;;;;;;5055537;28;20029;-84
2021/09/01 07:28:25;;;;;;;4.65;3.65;;;18.70;67.10;;;;;;5053896;28;20389;-84
2021/09/01 07:30:51;;;;;;;3.92;3.72;;;18.70;67.00;;;;;;5050707;28;20033;-84
2021/09/01 07:33:17;;;;;;;3.92;3.72;;;18.80;66.90;;;;;;5056012;28;20040;-84
2021/09/01 07:35:45;;;;;;;4.22;4.03;;;18.90;66.90;;;;;;5037698;28;20037;-86
2021/09/01 07:38:12;;;;;;;4.40;4.07;;;18.90;66.70;;;;;;5054886;28;20375;-85
2021/09/01 07:40:38;;;;;;;4.43;4.03;;;19.00;66.60;;;;;;5055234;28;20025;-85
2021/09/01 07:43:04;;;;;;;4.55;4.35;;;19.10;66.50;;;;;;5051941;28;20096;-84
2021/09/01 07:45:30;;;;;;;5.00;4.78;;;19.20;66.50;;;;;;5053356;28;20033;-85
2021/09/01 07:47:57;;;;;;;6.10;5.80;;;19.20;66.30;;;;;;5055711;28;20021;-85
2021/09/01 07:50:28;;;;;;;5.75;5.45;;;19.30;66.10;;;;;;5053847;28;20088;-84
2021/09/01 07:52:54;;;;;;;5.55;5.25;;;19.40;65.90;;;;;;5053459;28;20172;-85
2021/09/01 07:55:20;;;;;;;7.60;5.90;;;19.40;65.80;;;;;;5052889;28;20025;-85
2021/09/01 07:57:46;;;;;;;6.75;6.35;;;19.50;65.70;;;;;;5051571;28;20049;-85
2021/09/01 08:00:13;;;;;;;7.97;7.32;;;19.60;65.60;;;;;;5056381;28;20039;-85
2021/09/01 08:02:39;;;;;;;6.93;6.53;;;19.70;65.30;;;;;;5053690;28;20040;-85
2021/09/01 08:05:06;;;;;;;6.93;6.53;;;19.80;65.10;;;;;;5054940;28;20470;-84
2021/09/01 08:07:32;;;;;;;4.85;4.65;;;19.80;64.90;;;;;;5054526;28;20052;-85
2021/09/01 08:09:58;;;;;;;5.85;5.50;;;19.90;64.80;;;;;;5033974;28;20033;-85
2021/09/01 08:12:24;;;;;;;5.25;4.95;;;20.00;64.60;;;;;;5055241;28;20052;-85
2021/09/01 08:14:50;;;;;;;5.88;5.57;;;20.10;64.40;;;;;;5053528;28;20499;-85
2021/09/01 08:17:17;;;;;;;8.70;8.27;;;20.30;64.20;;;;;;5054339;28;20041;-85
2021/09/01 08:19:43;;;;;;;6.03;5.72;;;20.30;63.70;;;;;;5036952;28;20032;-85
2021/09/01 08:22:09;;;;;;;4.72;4.53;;;20.40;63.50;;;;;;5051936;28;20033;-85
2021/09/01 08:24:38;;;;;;;5.22;4.93;;;20.50;63.30;;;;;;5035966;28;20013;-85
2021/09/01 08:27:08;;;;;;;4.90;4.70;;;20.60;63.20;;;;;;5071627;28;20040;-85
2021/09/01 08:29:34;;;;;;;6.07;5.78;;;20.70;63.00;;;;;;5053350;28;20036;-85
2021/09/01 08:32:01;;;;;;;8.43;7.68;;;20.80;62.60;;;;;;5052960;28;20064;-85
2021/09/01 08:34:27;;;;;;;7.07;6.78;;;20.80;62.30;;;;;;5054781;28;20044;-85
2021/09/01 08:36:53;;;;;;;6.40;6.07;;;20.90;62.30;;;;;;5049913;28;20038;-85
2021/09/01 08:39:19;;;;;;;15.57;14.77;;;20.90;62.20;;;;;;5055846;28;20045;-85
2021/09/01 08:41:46;;;;;;;9.93;9.43;;;21.00;61.90;;;;;;5058429;28;20029;-85
2021/09/01 08:44:12;;;;;;;7.95;7.55;;;21.00;61.70;;;;;;5040862;28;20385;-84
2021/09/01 08:46:38;;;;;;;7.53;7.03;;;21.00;61.70;;;;;;5057974;28;20032;-85
2021/09/01 08:49:04;;;;;;;6.97;6.57;;;21.00;62.50;;;;;;5055173;28;20021;-85
2021/09/01 08:51:30;;;;;;;5.95;5.40;;;21.20;61.50;;;;;;5024254;28;20037;-85
2021/09/01 08:53:57;;;;;;;5.85;5.53;;;21.30;61.20;;;;;;5057781;28;20029;-85
2021/09/01 08:56:24;;;;;;;5.25;5.00;;;21.50;61.00;;;;;;5058307;28;20036;-86
2021/09/01 08:58:50;;;;;;;5.93;5.63;;;21.60;60.50;;;;;;5040627;28;20040;-86
2021/09/01 09:01:44;;;;;;;5.97;5.68;;;21.60;60.20;;;;;;5056220;28;20036;-85
2021/09/01 09:04:17;;;;;;;5.85;5.55;;;21.60;60.10;;;;;;5041925;28;20029;-86
2021/09/01 09:06:48;;;;;;;5.30;5.00;;;21.60;60.00;;;;;;5055040;28;20044;-87
2021/09/01 09:09:16;;;;;;;6.78;6.47;;;21.60;59.90;;;;;;5059065;28;20482;-85
2021/09/01 09:11:42;;;;;;;7.18;6.65;;;21.60;59.90;;;;;;5057818;28;20374;-86
2021/09/01 09:14:23;;;;;;;5.93;5.63;;;21.60;59.80;;;;;;5057896;28;20397;-85
2021/09/01 09:17:01;;;;;;;;;;;21.60;59.80;;;;;;5057982;28;20036;-86
2021/09/01 09:19:48;;;;;;;7.13;6.72;;;21.60;60.40;;;;;;5057534;28;19908;-86
2021/09/01 09:22:36;;;;;;;9.68;9.10;;;21.60;59.70;;;;;;5040364;28;20037;-85
2021/09/01 09:25:18;;;;;;;7.72;7.22;;;21.60;59.60;;;;;;5038285;28;20028;-85
2021/09/01 09:27:55;;;;;;;7.65;7.25;;;21.60;59.30;;;;;;5053429;28;20496;-85
2021/09/01 09:30:21;;;;;;;6.72;6.43;;;21.70;59.10;;;;;;5058024;28;20386;-86
2021/09/01 09:32:57;;;;;;;6.13;5.82;;;21.80;59.00;;;;;;5057385;28;20029;-86
2021/09/01 09:35:24;;;;;;;11.35;10.80;;;22.00;58.70;;;;;;5055980;28;20494;-85
2021/09/01 09:38:01;;;;;;;25.08;23.63;;;22.20;58.30;;;;;;5056466;28;20029;-85
2021/09/01 09:40:29;;;;;;;7.28;6.88;;;22.30;58.00;;;;;;5057473;28;20020;-85
2021/09/01 09:42:55;;;;;;;9.70;9.13;;;22.30;57.90;;;;;;5036091;28;20467;-85
2021/09/01 09:45:22;;;;;;;6.35;6.05;;;22.30;57.80;;;;;;5058952;28;20037;-85
2021/09/01 09:47:53;;;;;;;6.50;6.20;;;22.30;57.70;;;;;;5040574;28;20041;-85
2021/09/01 09:50:19;;;;;;;6.53;6.15;;;22.40;57.70;;;;;;5025173;28;20037;-85
2021/09/01 09:52:45;;;;;;;7.53;6.95;;;22.50;57.60;;;;;;5055864;28;20055;-85
2021/09/01 09:55:12;;;;;;;7.55;6.82;;;22.70;57.10;;;;;;5054872;28;20036;-86
2021/09/01 09:57:48;;;;;;;7.47;6.97;;;22.80;56.90;;;;;;5054049;28;20038;-85
2021/09/01 10:00:14;;;;;;;6.45;6.10;;;22.90;56.80;;;;;;5057466;28;20036;-85
2021/09/01 10:02:42;;;;;;;6.50;6.10;;;22.90;56.70;;;;;;5055605;28;20052;-85
2021/09/01 10:05:12;;;;;;;7.20;6.80;;;23.00;56.50;;;;;;5041091;28;20033;-86
2021/09/01 10:07:38;;;;;;;7.03;6.65;;;23.20;56.30;;;;;;5057075;28;20062;-86
2021/09/01 10:10:05;;;;;;;7.03;6.63;;;23.30;56.00;;;;;;5053807;28;20040;-86
2021/09/01 10:12:31;;;;;;;6.75;6.45;;;23.40;55.90;;;;;;5055647;28;20482;-86
2021/09/01 10:14:57;;;;;;;7.22;6.65;;;23.40;55.50;;;;;;5056566;28;20029;-85
2021/09/01 10:17:23;;;;;;;6.50;6.10;;;23.40;55.60;;;;;;5038303;28;20029;-86
2021/09/01 10:19:51;;;;;;;15.15;14.38;;;23.50;55.50;;;;;;5024187;28;20044;-85
2021/09/01 10:22:17;;;;;;;6.05;5.75;;;23.60;55.40;;;;;;5035796;28;20032;-87
2021/09/01 10:24:44;;;;;;;6.80;6.47;;;23.60;55.00;;;;;;5035988;28;20458;-86
2021/09/01 10:27:19;;;;;;;9.00;8.50;;;23.50;55.60;;;;;;5057582;28;20036;-86
2021/09/01 10:29:59;;;;;;;6.68;6.38;;;23.50;55.00;;;;;;5055340;28;20029;-86
2021/09/01 10:32:36;;;;;;;7.05;6.47;;;23.60;55.00;;;;;;5054638;28;20041;-86
2021/09/01 10:35:12;;;;;;;7.10;6.75;;;23.80;55.00;;;;;;5056400;28;20045;-86
2021/09/01 10:37:42;;;;;;;10.30;9.80;;;23.90;54.70;;;;;;5056243;28;20036;-86
2021/09/01 10:40:11;;;;;;;8.02;7.60;;;24.00;54.40;;;;;;5052657;28;20029;-86
2021/09/01 10:42:39;;;;;;;7.20;6.80;;;24.00;54.30;;;;;;5037049;28;20033;-86
2021/09/01 10:45:07;;;;;;;7.65;7.25;;;23.90;54.20;;;;;;5090297;28;20029;-86
2021/09/01 10:47:52;;;;;;;8.77;8.10;;;23.80;54.30;;;;;;5039655;28;20036;-85
2021/09/01 10:50:32;;;;;;;9.88;9.30;;;24.00;54.20;;;;;;5056096;28;20390;-85
2021/09/01 10:53:18;;;;;;;6.63;6.32;;;24.00;53.80;;;;;;5038405;28;20021;-86
2021/09/01 10:55:55;;;;;;;6.55;6.25;;;24.10;53.60;;;;;;5055089;28;20367;-83
2021/09/01 10:58:33;;;;;;;6.50;6.20;;;24.00;53.50;;;;;;5038451;28;20024;-86
2021/09/01 11:01:19;;;;;;;7.95;7.55;;;24.00;53.50;;;;;;5033762;28;20022;-84
2021/09/01 11:04:02;;;;;;;6.22;5.88;;;24.00;53.20;;;;;;5051066;28;20029;-86
2021/09/01 11:06:38;;;;;;;7.20;6.70;;;24.00;53.10;;;;;;5065861;28;20045;-85
2021/09/01 11:09:12;;;;;;;6.43;6.13;;;24.00;53.00;;;;;;5056298;28;20500;-86
2021/09/01 11:11:38;;;;;;;7.25;6.85;;;24.00;53.00;;;;;;5054555;28;20048;-86
2021/09/01 11:14:05;;;;;;;15.35;14.63;;;24.10;52.80;;;;;;5055593;28;20048;-86
2021/09/01 11:16:31;;;;;;;5.40;5.15;;;24.10;52.40;;;;;;5054820;28;20028;-86
2021/09/01 11:19:07;;;;;;;6.32;5.93;;;24.10;52.30;;;;;;5051380;28;20041;-86
2021/09/01 11:21:39;;;;;;;7.03;6.53;;;24.10;52.30;;;;;;5054833;28;20032;-86
2021/09/01 11:24:06;;;;;;;6.00;5.70;;;24.10;52.10;;;;;;5072814;28;20037;-85
2021/09/01 11:26:33;;;;;;;7.10;6.45;;;24.10;52.00;;;;;;5054240;28;20037;-85
2021/09/01 11:28:59;;;;;;;5.80;5.50;;;24.10;51.90;;;;;;5054310;28;20025;-86
2021/09/01 11:31:25;;;;;;;6.85;6.25;;;24.20;52.50;;;;;;5054608;28;20041;-85
2021/09/01 11:33:55;;;;;;;7.40;7.00;;;24.30;51.90;;;;;;5049798;28;20048;-85
2021/09/01 11:36:29;;;;;;;6.97;6.47;;;24.30;51.50;;;;;;5056088;28;20465;-84
2021/09/01 11:38:58;;;;;;;6.70;6.40;;;24.40;51.30;;;;;;5054383;28;20052;-85
2021/09/01 11:41:25;;;;;;;6.13;5.72;;;24.30;51.10;;;;;;5055060;28;20378;-86
2021/09/01 11:43:59;;;;;;;6.35;5.95;;;24.30;51.10;;;;;;5054869;28;20040;-86
2021/09/01 11:46:26;;;;;;;28.00;26.10;;;24.40;51.20;;;;;;5036746;28;20036;-85
2021/09/01 11:48:52;;;;;;;6.80;6.40;;;24.50;51.00;;;;;;5033444;28;20041;-85
2021/09/01 11:51:22;;;;;;;6.90;6.40;;;24.50;50.90;;;;;;5055861;28;20021;-85
2021/09/01 11:53:48;;;;;;;6.95;6.60;;;24.50;50.70;;;;;;5037394;28;20040;-85
2021/09/01 11:56:14;;;;;;;6.50;6.15;;;24.60;50.80;;;;;;5037381;28;20032;-85
2021/09/01 11:58:40;;;;;;;8.57;6.72;;;24.70;50.70;;;;;;5054776;28;20036;-86
2021/09/01 12:01:11;;;;;;;7.65;7.25;;;24.80;50.50;;;;;;5050310;28;20379;-85
2021/09/01 12:03:37;;;;;;;7.90;7.53;;;24.90;50.30;;;;;;5036298;28;20485;-87
2021/09/01 12:06:09;;;;;;;7.63;7.22;;;25.00;50.10;;;;;;5053340;28;20044;-86
2021/09/01 12:08:46;;;;;;;7.63;7.28;;;25.00;49.90;;;;;;5038927;28;20041;-86
2021/09/01 12:11:12;;;;;;;9.43;6.82;;;25.00;49.90;;;;;;5054714;28;20021;-85
2021/09/01 12:13:42;;;;;;;17.70;16.80;;;24.90;50.40;;;;;;5052974;28;20036;-85
2021/09/01 12:16:08;;;;;;;8.05;7.65;;;24.90;49.90;;;;;;5051129;28;20033;-86
2021/09/01 12:18:54;;;;;;;7.00;6.60;;;25.00;49.80;;;;;;5036126;28;20033;-85
2021/09/01 12:21:21;;;;;;;7.82;7.13;;;25.00;49.60;;;;;;5088488;28;20021;-86
2021/09/01 12:24:07;;;;;;;8.15;7.65;;;25.00;49.60;;;;;;5054588;28;20025;-86
2021/09/01 12:26:43;;;;;;;9.13;7.25;;;25.10;49.50;;;;;;5054792;28;20051;-86
2021/09/01 12:29:27;;;;;;;7.35;6.88;;;25.20;49.40;;;;;;5038046;28;20025;-85
2021/09/01 12:31:53;;;;;;;8.85;8.35;;;25.20;49.40;;;;;;5053147;28;20026;-85
2021/09/01 12:34:34;;;;;;;8.10;7.70;;;25.20;49.20;;;;;;5052260;28;20055;-85
2021/09/01 12:37:08;;;;;;;7.60;7.30;;;25.30;49.20;;;;;;5036263;28;20049;-84
2021/09/01 12:39:40;;;;;;;10.10;9.60;;;25.40;48.90;;;;;;5053559;28;20040;-85
2021/09/01 12:42:06;;;;;;;7.45;7.13;;;25.30;48.80;;;;;;5054148;28;20029;-85
2021/09/01 12:44:47;;;;;;;8.32;7.78;;;25.30;48.70;;;;;;5037151;28;20037;-83
2021/09/01 12:47:14;;;;;;;8.45;8.05;;;25.30;48.90;;;;;;5053911;28;20052;-84
2021/09/01 12:49:47;;;;;;;9.32;8.85;;;25.30;48.70;;;;;;5053357;28;20048;-86